Time;durP1;ratioP1;P1;durP2;ratioP2;P2;SDS_P1;SDS_P2;PMS_P1;PMS_P2;Temp;Humidity;BMP_temperature;BMP_pressure;BME280_temperature;BME280_humidity;BME280_pressure;Samples;Min_cycle;Max_cycle;Signal;HPM_P1;HPM_P2
2023/07/09 00:00:18;;;;;;;6.72;3.17;;;21.00;83.60;;;;;;5042882;28;20167;-77
2023/07/09 00:02:44;;;;;;;8.13;3.25;;;21.00;83.60;;;;;;5042541;28;20166;-76
2023/07/09 00:05:16;;;;;;;9.73;2.83;;;21.00;83.60;;;;;;5044146;28;20064;-77
2023/07/09 00:07:43;;;;;;;6.93;3.00;;;21.00;83.60;;;;;;5045597;28;20100;-76
2023/07/09 00:10:17;;;;;;;7.47;3.00;;;21.00;83.80;;;;;;5044384;28;20075;-77
2023/07/09 00:12:43;;;;;;;8.82;2.97;;;21.00;83.80;;;;;;5042154;28;20504;-76
2023/07/09 00:15:10;;;;;;;8.55;3.30;;;20.90;83.80;;;;;;5043620;28;20120;-76
2023/07/09 00:17:37;;;;;;;14.70;3.72;;;21.00;84.00;;;;;;5042946;28;20029;-76
2023/07/09 00:20:05;;;;;;;8.52;3.17;;;21.00;83.90;;;;;;5044826;28;20033;-76
2023/07/09 00:22:31;;;;;;;6.25;3.00;;;21.00;84.00;;;;;;5044484;28;20033;-77
2023/07/09 00:24:56;;;;;;;16.60;3.58;;;20.90;83.80;;;;;;5043856;28;20367;-76
2023/07/09 00:27:27;;;;;;;9.10;3.33;;;20.90;84.10;;;;;;5042239;28;20099;-77
2023/07/09 00:29:52;;;;;;;7.55;3.38;;;20.90;84.00;;;;;;5044555;28;20466;-76
2023/07/09 00:32:20;;;;;;;5.80;3.20;;;20.90;84.20;;;;;;5045086;28;20021;-76
2023/07/09 00:34:49;;;;;;;8.48;3.72;;;20.90;84.30;;;;;;5043628;28;20025;-76
2023/07/09 00:37:19;;;;;;;11.25;3.47;;;20.90;84.30;;;;;;5041083;28;20022;-76
2023/07/09 00:39:46;;;;;;;10.10;3.10;;;20.90;84.30;;;;;;5043871;28;20020;-76
2023/07/09 00:42:17;;;;;;;5.78;3.00;;;20.90;84.40;;;;;;5040393;28;20056;-76
2023/07/09 00:44:51;;;;;;;6.18;2.92;;;20.90;84.40;;;;;;5041228;28;20025;-76
2023/07/09 00:47:29;;;;;;;12.20;3.67;;;20.90;84.70;;;;;;5043060;28;20497;-77
2023/07/09 00:50:11;;;;;;;9.02;3.70;;;20.90;84.60;;;;;;5044229;28;20104;-76
2023/07/09 00:52:53;;;;;;;7.28;3.25;;;20.90;84.50;;;;;;5041504;28;20148;-77
2023/07/09 00:55:27;;;;;;;6.28;3.05;;;20.90;84.50;;;;;;5040332;28;20489;-76
2023/07/09 00:57:58;;;;;;;6.53;3.17;;;20.90;84.40;;;;;;5041098;28;20033;-76
2023/07/09 01:00:46;;;;;;;6.20;3.00;;;20.90;84.50;;;;;;5038144;28;20056;-76
2023/07/09 01:03:29;;;;;;;6.20;3.35;;;20.90;84.60;;;;;;5044283;28;20393;-75
2023/07/09 01:05:57;;;;;;;8.32;3.10;;;20.90;84.50;;;;;;5044027;28;20017;-76
2023/07/09 01:08:24;;;;;;;5.72;3.20;;;20.90;84.60;;;;;;5038385;28;20064;-76
2023/07/09 01:10:50;;;;;;;5.65;3.13;;;20.90;84.70;;;;;;5038695;28;20029;-77
2023/07/09 01:13:19;;;;;;;7.60;3.20;;;20.90;84.80;;;;;;5036490;28;20108;-76
2023/07/09 01:15:46;;;;;;;7.88;3.42;;;20.90;84.90;;;;;;5036479;28;20025;-76
2023/07/09 01:18:14;;;;;;;8.85;3.33;;;20.90;84.90;;;;;;5041411;28;20024;-76
2023/07/09 01:20:40;;;;;;;10.55;3.25;;;20.90;84.90;;;;;;5044268;28;20039;-76
2023/07/09 01:23:07;;;;;;;4.38;2.75;;;20.80;84.80;;;;;;5038899;28;20022;-76
2023/07/09 01:25:34;;;;;;;7.13;3.10;;;20.90;84.80;;;;;;5036849;28;20103;-77
2023/07/09 01:28:00;;;;;;;11.93;3.05;;;20.80;84.90;;;;;;5040611;28;20021;-76
2023/07/09 01:30:33;;;;;;;10.65;3.70;;;20.90;85.00;;;;;;5036402;28;20069;-76
2023/07/09 01:33:00;;;;;;;10.20;3.30;;;20.90;85.00;;;;;;5032963;28;20018;-76
2023/07/09 01:35:28;;;;;;;6.55;3.70;;;20.80;85.00;;;;;;5045254;28;20079;-76
2023/07/09 01:37:54;;;;;;;7.68;3.13;;;20.80;85.00;;;;;;5039722;28;20021;-76
2023/07/09 01:40:23;;;;;;;7.18;3.08;;;20.80;85.10;;;;;;5033929;28;20079;-76
2023/07/09 01:42:49;;;;;;;5.45;3.22;;;20.80;85.10;;;;;;5034698;28;20045;-77
2023/07/09 01:45:15;;;;;;;5.80;3.10;;;20.80;85.20;;;;;;5033225;28;20497;-76
2023/07/09 01:47:42;;;;;;;6.03;3.60;;;20.80;85.30;;;;;;5034399;28;20028;-77
2023/07/09 01:50:09;;;;;;;6.22;3.40;;;20.80;85.30;;;;;;5037820;28;20025;-76
2023/07/09 01:52:37;;;;;;;4.47;2.80;;;20.80;85.30;;;;;;5041276;28;20056;-76
2023/07/09 01:55:03;;;;;;;4.68;3.25;;;20.80;85.40;;;;;;5021916;28;20075;-76
2023/07/09 01:57:33;;;;;;;8.13;3.80;;;20.80;85.30;;;;;;5036185;28;20029;-76
2023/07/09 02:00:10;;;;;;;9.02;3.47;;;20.80;85.50;;;;;;5034388;28;20036;-76
2023/07/09 02:02:38;;;;;;;7.88;3.17;;;20.80;85.50;;;;;;5034085;28;20453;-76
2023/07/09 02:05:05;;;;;;;9.65;3.50;;;20.80;85.50;;;;;;5033095;28;20029;-77
2023/07/09 02:07:31;;;;;;;8.00;3.50;;;20.80;85.50;;;;;;5041554;28;20053;-76
2023/07/09 02:09:58;;;;;;;10.93;3.70;;;20.80;85.60;;;;;;5043939;28;20059;-77
2023/07/09 02:12:23;;;;;;;13.55;3.72;;;20.80;85.70;;;;;;5041051;28;20049;-77
2023/07/09 02:14:49;;;;;;;6.78;2.90;;;20.80;85.70;;;;;;5036957;28;20059;-76
2023/07/09 02:17:15;;;;;;;6.88;3.25;;;20.80;85.70;;;;;;5035482;28;20028;-76
2023/07/09 02:19:41;;;;;;;7.07;3.53;;;20.80;85.70;;;;;;5043499;28;20390;-77
2023/07/09 02:22:07;;;;;;;10.05;3.95;;;20.80;85.70;;;;;;5058455;28;20033;-76
2023/07/09 02:24:33;;;;;;;9.40;3.22;;;20.70;85.60;;;;;;5061905;28;20085;-76
2023/07/09 02:27:01;;;;;;;6.28;2.90;;;20.70;85.50;;;;;;5062934;28;20029;-76
2023/07/09 02:29:28;;;;;;;5.10;2.92;;;20.70;85.50;;;;;;5058167;28;20544;-76
2023/07/09 02:31:56;;;;;;;7.22;3.05;;;20.70;85.40;;;;;;5058254;28;20461;-76
2023/07/09 02:34:25;;;;;;;10.45;2.85;;;20.80;85.60;;;;;;5060691;28;20041;-76
2023/07/09 02:36:52;;;;;;;6.90;3.33;;;20.70;85.50;;;;;;5067387;28;20078;-76
2023/07/09 02:39:17;;;;;;;6.30;3.30;;;20.70;85.60;;;;;;5056784;28;20028;-75
2023/07/09 02:41:43;;;;;;;12.35;2.95;;;20.70;85.70;;;;;;5064764;28;20025;-76
2023/07/09 02:44:09;;;;;;;6.63;3.28;;;20.70;85.70;;;;;;5060498;28;20025;-75
2023/07/09 02:46:35;;;;;;;10.73;2.95;;;20.70;85.80;;;;;;5061965;28;20389;-76
2023/07/09 02:49:04;;;;;;;8.07;3.20;;;20.70;85.80;;;;;;5061589;28;20029;-76
2023/07/09 02:51:29;;;;;;;7.15;3.67;;;20.70;85.80;;;;;;5063205;28;20032;-77
2023/07/09 02:53:57;;;;;;;11.80;3.55;;;20.70;85.90;;;;;;5061201;28;20025;-76
2023/07/09 02:56:23;;;;;;;6.68;3.10;;;20.70;85.90;;;;;;5061310;28;20393;-76
2023/07/09 02:58:50;;;;;;;11.75;3.50;;;20.70;85.90;;;;;;5061969;28;20151;-76
2023/07/09 03:01:15;;;;;;;6.85;3.60;;;20.70;85.90;;;;;;5061859;28;20017;-76
2023/07/09 03:03:41;;;;;;;6.20;3.25;;;20.70;86.00;;;;;;5058079;28;20040;-77
2023/07/09 03:06:07;;;;;;;9.65;2.97;;;20.70;86.00;;;;;;5063921;28;20064;-76
2023/07/09 03:08:33;;;;;;;7.55;3.53;;;20.70;86.00;;;;;;5061347;28;20080;-76
2023/07/09 03:10:59;;;;;;;6.13;2.95;;;20.70;86.00;;;;;;5065297;28;20469;-77
2023/07/09 03:13:25;;;;;;;7.43;3.65;;;20.70;86.10;;;;;;5043149;28;20055;-76
2023/07/09 03:15:55;;;;;;;6.65;3.72;;;20.70;86.10;;;;;;5051446;28;20485;-76
2023/07/09 03:18:21;;;;;;;;;;;20.70;86.10;;;;;;5066282;28;20481;-74
2023/07/09 03:20:46;;;;;;;8.50;3.22;;;20.70;86.10;;;;;;5052787;28;19917;-76
2023/07/09 03:23:14;;;;;;;6.13;3.00;;;20.70;86.10;;;;;;5044172;28;20451;-76
2023/07/09 03:25:44;;;;;;;3.75;2.80;;;20.70;86.10;;;;;;5047686;28;20029;-76
2023/07/09 03:28:11;;;;;;;6.97;3.20;;;20.70;86.00;;;;;;5046896;28;20036;-76
2023/07/09 03:30:44;;;;;;;7.60;3.28;;;20.70;86.10;;;;;;5046205;28;20025;-77
2023/07/09 03:33:10;;;;;;;10.27;3.25;;;20.70;86.10;;;;;;5043237;28;20096;-77
2023/07/09 03:35:38;;;;;;;14.68;3.40;;;20.70;86.10;;;;;;5042706;28;20033;-76
2023/07/09 03:38:04;;;;;;;5.95;3.00;;;20.70;86.20;;;;;;5044364;28;20500;-76
2023/07/09 03:40:30;;;;;;;6.97;3.20;;;20.70;86.10;;;;;;5045002;28;20036;-77
2023/07/09 03:42:55;;;;;;;5.82;3.80;;;20.60;86.00;;;;;;5043703;28;20021;-77
2023/07/09 03:45:21;;;;;;;6.13;3.28;;;20.70;86.20;;;;;;5044962;28;20557;-75
2023/07/09 03:47:47;;;;;;;5.60;3.03;;;20.70;86.10;;;;;;5046423;28;20024;-76
2023/07/09 03:50:12;;;;;;;7.43;3.35;;;20.70;86.10;;;;;;5045813;28;20120;-76
2023/07/09 03:52:38;;;;;;;6.22;3.33;;;20.60;86.10;;;;;;5048819;28;20378;-76
2023/07/09 03:55:04;;;;;;;11.38;3.20;;;20.60;86.10;;;;;;5043311;28;20092;-76
2023/07/09 03:57:30;;;;;;;6.00;3.42;;;20.70;86.20;;;;;;5039490;28;20482;-76
2023/07/09 03:59:56;;;;;;;5.80;2.58;;;20.60;86.20;;;;;;5047378;28;20020;-77
2023/07/09 04:02:22;;;;;;;10.88;3.83;;;20.60;86.20;;;;;;5048585;28;20084;-76
2023/07/09 04:04:48;;;;;;;4.38;2.88;;;20.60;86.30;;;;;;5044933;28;20014;-80
2023/07/09 04:07:14;;;;;;;6.32;3.10;;;20.60;86.30;;;;;;5043631;28;20024;-79
2023/07/09 04:09:39;;;;;;;8.07;2.90;;;20.60;86.40;;;;;;5044010;28;20026;-78
2023/07/09 04:12:05;;;;;;;6.18;3.47;;;20.70;86.70;;;;;;5044209;28;20028;-77
2023/07/09 04:14:31;;;;;;;7.57;3.40;;;20.60;86.80;;;;;;5041154;28;20153;-76
2023/07/09 04:16:57;;;;;;;5.95;2.40;;;20.60;86.70;;;;;;5044569;28;20114;-74
2023/07/09 04:19:23;;;;;;;6.60;3.47;;;20.60;86.80;;;;;;5041865;28;20025;-73
2023/07/09 04:21:49;;;;;;;6.45;3.13;;;20.60;86.80;;;;;;5044261;28;20029;-74
2023/07/09 04:24:17;;;;;;;8.82;3.45;;;20.60;86.80;;;;;;5040647;28;20044;-73
2023/07/09 04:26:43;;;;;;;5.78;3.15;;;20.60;86.90;;;;;;5041591;28;20107;-74
2023/07/09 04:29:09;;;;;;;6.30;3.50;;;20.60;86.90;;;;;;5037196;28;20104;-73
2023/07/09 04:31:35;;;;;;;6.05;3.38;;;20.60;87.00;;;;;;5019493;28;20034;-74
2023/07/09 04:34:00;;;;;;;7.15;3.42;;;20.60;87.10;;;;;;5045794;28;20033;-73
2023/07/09 04:36:26;;;;;;;5.50;2.83;;;20.60;87.10;;;;;;5039710;28;20075;-73
2023/07/09 04:38:52;;;;;;;6.55;3.28;;;20.60;87.30;;;;;;5042260;28;20032;-73
2023/07/09 04:41:18;;;;;;;6.65;3.20;;;20.60;87.30;;;;;;5039137;28;20513;-75
2023/07/09 04:43:43;;;;;;;14.65;3.28;;;20.60;87.30;;;;;;5020154;28;20117;-73
2023/07/09 04:46:09;;;;;;;6.05;2.78;;;20.60;87.30;;;;;;5044412;28;20036;-73
2023/07/09 04:48:35;;;;;;;9.73;3.38;;;20.60;87.40;;;;;;5041559;28;20100;-74
2023/07/09 04:51:00;;;;;;;7.32;3.33;;;20.60;87.50;;;;;;5039229;28;20107;-73
2023/07/09 04:53:26;;;;;;;6.32;2.75;;;20.60;87.50;;;;;;5044128;28;20474;-74
2023/07/09 04:55:52;;;;;;;6.57;3.53;;;20.60;88.30;;;;;;5045008;28;20080;-73
2023/07/09 04:58:21;;;;;;;5.70;2.85;;;20.60;87.50;;;;;;5042549;28;22385;-73
2023/07/09 05:00:46;;;;;;;7.30;3.25;;;20.60;87.50;;;;;;5042382;28;20026;-73
2023/07/09 05:03:12;;;;;;;5.43;3.08;;;20.60;87.50;;;;;;5039874;28;20076;-73
2023/07/09 05:05:47;;;;;;;14.25;3.75;;;20.60;87.60;;;;;;5035595;28;20037;-80
2023/07/09 05:08:13;;;;;;;10.80;3.28;;;20.60;87.50;;;;;;5037263;28;20024;-74
2023/07/09 05:10:46;;;;;;;11.48;3.17;;;20.70;87.50;;;;;;5041239;28;20028;-74
2023/07/09 05:13:12;;;;;;;16.08;4.07;;;20.70;87.50;;;;;;5039727;28;20021;-74
2023/07/09 05:15:44;;;;;;;6.45;3.00;;;20.70;87.40;;;;;;5026710;28;20683;-73
2023/07/09 05:18:11;;;;;;;6.35;3.33;;;20.70;87.30;;;;;;5043770;28;20507;-73
2023/07/09 05:20:36;;;;;;;6.97;3.38;;;20.70;87.40;;;;;;5054190;28;20603;-74
2023/07/09 05:23:03;;;;;;;7.45;3.60;;;20.70;87.30;;;;;;5071655;28;20017;-74
2023/07/09 05:25:28;;;;;;;9.15;4.05;;;20.70;87.30;;;;;;5063341;28;20095;-73
2023/07/09 05:27:54;;;;;;;7.40;3.15;;;20.70;87.30;;;;;;5063096;28;21340;-73
2023/07/09 05:30:19;;;;;;;7.65;3.22;;;20.70;87.30;;;;;;5068337;28;20024;-72
2023/07/09 05:32:46;;;;;;;17.42;3.67;;;20.70;87.20;;;;;;5063606;28;20066;-73
2023/07/09 05:35:11;;;;;;;6.35;3.40;;;20.80;87.30;;;;;;5066857;28;20024;-73
2023/07/09 05:37:40;;;;;;;17.48;3.63;;;20.70;87.10;;;;;;5069492;28;20024;-74
2023/07/09 05:40:07;;;;;;;5.70;3.55;;;20.80;87.10;;;;;;5068716;28;20037;-74
2023/07/09 05:42:33;;;;;;;10.40;3.65;;;20.80;87.10;;;;;;5068372;28;20043;-74
2023/07/09 05:44:59;;;;;;;12.93;4.57;;;20.80;87.00;;;;;;5065278;28;20029;-74
2023/07/09 05:47:25;;;;;;;8.70;3.60;;;20.80;87.00;;;;;;5066603;28;20024;-73
2023/07/09 05:49:51;;;;;;;13.35;3.50;;;20.80;87.10;;;;;;5061835;28;20680;-73
2023/07/09 05:52:19;;;;;;;6.90;3.67;;;20.90;87.10;;;;;;5066787;28;20501;-73
2023/07/09 05:54:44;;;;;;;10.68;3.35;;;20.80;87.20;;;;;;5068770;28;20508;-73
2023/07/09 05:57:10;;;;;;;8.10;3.53;;;20.80;87.40;;;;;;5067205;28;20036;-74
2023/07/09 05:59:36;;;;;;;9.07;3.75;;;20.90;87.40;;;;;;5065880;28;20032;-73
2023/07/09 06:02:03;;;;;;;15.48;3.85;;;20.80;87.50;;;;;;5070513;28;20032;-74
2023/07/09 06:04:30;;;;;;;8.85;3.50;;;20.90;87.60;;;;;;5069053;28;20047;-73
2023/07/09 06:06:56;;;;;;;7.22;3.60;;;20.90;87.90;;;;;;5066504;28;20103;-74
2023/07/09 06:09:22;;;;;;;7.38;3.00;;;20.90;88.30;;;;;;5070674;28;20036;-74
2023/07/09 06:11:48;;;;;;;7.68;3.40;;;20.90;88.60;;;;;;5070524;28;20377;-74
2023/07/09 06:14:15;;;;;;;7.15;3.55;;;20.90;88.80;;;;;;5066827;28;20024;-74
2023/07/09 06:16:40;;;;;;;6.63;3.42;;;20.90;89.00;;;;;;5062467;28;20416;-74
2023/07/09 06:19:06;;;;;;;7.78;3.78;;;20.90;89.50;;;;;;5066541;28;20025;-74
2023/07/09 06:21:31;;;;;;;7.15;3.75;;;20.90;89.60;;;;;;5051324;28;20385;-74
2023/07/09 06:23:57;;;;;;;9.18;4.00;;;20.90;89.40;;;;;;5043934;28;20078;-74
2023/07/09 06:26:23;;;;;;;7.78;3.50;;;20.90;89.20;;;;;;5042290;28;20083;-74
2023/07/09 06:28:49;;;;;;;8.25;3.60;;;20.90;89.50;;;;;;5044069;28;20108;-74
2023/07/09 06:31:14;;;;;;;7.20;3.85;;;20.90;89.30;;;;;;5042821;28;20100;-74
2023/07/09 06:33:40;;;;;;;8.40;3.65;;;20.90;88.90;;;;;;5043731;28;20500;-74
2023/07/09 06:36:05;;;;;;;9.38;4.65;;;20.90;88.80;;;;;;5041077;28;20095;-74
2023/07/09 06:38:31;;;;;;;9.32;3.45;;;21.00;88.30;;;;;;5042042;28;20021;-74
2023/07/09 06:40:57;;;;;;;5.65;3.17;;;20.90;88.00;;;;;;5041242;28;20067;-74
2023/07/09 06:43:23;;;;;;;6.72;3.65;;;21.00;87.90;;;;;;5044292;28;20021;-74
2023/07/09 06:45:58;;;;;;;11.63;3.85;;;21.00;87.70;;;;;;5044502;28;20358;-74
2023/07/09 06:48:25;;;;;;;11.07;4.00;;;21.00;87.50;;;;;;5042411;28;20030;-74
2023/07/09 06:50:53;;;;;;;7.20;3.72;;;21.00;87.50;;;;;;5043191;28;20382;-74
2023/07/09 06:53:20;;;;;;;7.93;3.90;;;21.00;87.30;;;;;;5041647;28;20054;-74
2023/07/09 06:55:47;;;;;;;5.43;3.33;;;21.00;87.40;;;;;;5047917;28;20032;-74
2023/07/09 06:58:12;;;;;;;7.60;3.72;;;21.00;87.20;;;;;;5040227;28;20112;-74
2023/07/09 07:00:38;;;;;;;7.95;3.75;;;21.00;87.20;;;;;;5049162;28;20127;-74
2023/07/09 07:03:05;;;;;;;6.88;3.42;;;21.00;87.10;;;;;;5044670;28;20542;-75
2023/07/09 07:05:31;;;;;;;12.30;3.13;;;21.00;86.90;;;;;;5048180;28;20033;-74
2023/07/09 07:07:57;;;;;;;9.45;3.30;;;21.00;86.80;;;;;;5039951;28;20612;-75
2023/07/09 07:10:23;;;;;;;8.68;4.28;;;21.10;86.70;;;;;;5041712;28;20478;-74
2023/07/09 07:12:49;;;;;;;7.90;3.90;;;21.10;86.60;;;;;;5044173;28;20036;-74
2023/07/09 07:15:16;;;;;;;7.95;3.55;;;21.00;86.50;;;;;;5042020;28;20032;-74
2023/07/09 07:17:43;;;;;;;8.98;3.75;;;21.00;86.50;;;;;;5040437;28;20028;-75
2023/07/09 07:20:10;;;;;;;7.28;3.05;;;21.10;86.50;;;;;;5051734;28;20427;-85
2023/07/09 07:22:36;;;;;;;9.07;4.72;;;21.10;86.70;;;;;;5041690;28;20516;-85
2023/07/09 07:25:02;;;;;;;7.18;3.97;;;21.20;90.00;;;;;;5042616;28;20025;-86
2023/07/09 07:27:28;;;;;;;8.23;3.65;;;21.40;90.40;;;;;;5042417;28;20024;-85
2023/07/09 07:29:54;;;;;;;6.75;3.67;;;21.50;91.00;;;;;;5062189;28;20046;-86
2023/07/09 07:32:20;;;;;;;9.05;3.75;;;21.60;90.90;;;;;;5043142;28;20017;-86
2023/07/09 07:34:47;;;;;;;6.20;3.45;;;21.70;90.50;;;;;;5051427;28;20664;-86
2023/07/09 07:37:13;;;;;;;6.28;3.40;;;21.80;90.50;;;;;;5064819;28;20052;-84
2023/07/09 07:39:38;;;;;;;11.35;3.83;;;21.80;90.10;;;;;;5052408;28;20075;-86
2023/07/09 07:42:04;;;;;;;6.95;3.72;;;21.90;90.60;;;;;;5058073;28;20067;-87
2023/07/09 07:44:30;;;;;;;7.65;3.67;;;21.80;90.70;;;;;;5058642;28;20140;-86
2023/07/09 07:46:56;;;;;;;6.60;3.28;;;21.80;91.00;;;;;;5064576;28;20461;-87
2023/07/09 07:49:22;;;;;;;12.13;4.05;;;21.90;91.00;;;;;;5048992;28;20085;-86
2023/07/09 07:51:48;;;;;;;12.25;4.00;;;21.90;90.90;;;;;;5050385;28;20024;-86
2023/07/09 07:54:14;;;;;;;10.27;4.18;;;22.00;90.90;;;;;;5062308;28;20084;-82
2023/07/09 07:56:40;;;;;;;8.05;4.20;;;22.00;91.20;;;;;;5061536;28;20036;-86
2023/07/09 07:59:06;;;;;;;7.20;3.60;;;22.00;91.30;;;;;;5061380;28;20021;-86
2023/07/09 08:01:32;;;;;;;10.25;3.83;;;22.00;91.70;;;;;;5070848;28;20021;-87
2023/07/09 08:03:58;;;;;;;7.68;3.42;;;22.10;91.90;;;;;;5051109;28;20063;-88
2023/07/09 08:06:24;;;;;;;7.35;3.88;;;22.20;91.60;;;;;;5050863;28;20469;-87
2023/07/09 08:08:49;;;;;;;7.63;3.83;;;22.20;91.20;;;;;;5063932;28;20357;-89
2023/07/09 08:11:15;;;;;;;10.18;4.25;;;22.20;91.40;;;;;;5041991;28;20066;-88
2023/07/09 08:13:41;;;;;;;15.73;4.47;;;22.20;90.70;;;;;;5050386;28;20405;-89
2023/07/09 08:16:07;;;;;;;6.55;3.75;;;22.20;91.10;;;;;;5047826;28;20021;-85
2023/07/09 08:18:33;;;;;;;8.05;3.90;;;22.20;91.50;;;;;;5047813;28;20376;-85
2023/07/09 08:21:03;;;;;;;8.48;3.72;;;22.30;91.30;;;;;;5045024;28;20029;-77
2023/07/09 08:23:28;;;;;;;6.90;3.85;;;22.40;90.90;;;;;;5046364;28;20386;-72
2023/07/09 08:25:55;;;;;;;14.70;3.47;;;22.30;91.20;;;;;;5042489;28;20029;-73
2023/07/09 08:28:21;;;;;;;7.38;3.58;;;22.20;91.40;;;;;;5048860;28;20025;-72
2023/07/09 08:30:47;;;;;;;22.77;4.38;;;22.00;91.70;;;;;;5047934;28;20055;-72
2023/07/09 08:33:12;;;;;;;8.77;3.75;;;21.90;91.80;;;;;;5045100;28;20024;-72
2023/07/09 08:35:41;;;;;;;8.05;3.83;;;21.90;91.70;;;;;;5051637;28;20028;-73
2023/07/09 08:38:07;;;;;;;13.57;3.53;;;21.90;91.70;;;;;;5050748;28;20030;-72
2023/07/09 08:40:32;;;;;;;6.82;3.58;;;21.80;91.60;;;;;;5052352;28;20071;-72
2023/07/09 08:43:10;;;;;;;6.93;3.58;;;21.80;91.60;;;;;;5048401;28;20133;-72
2023/07/09 08:45:50;;;;;;;8.68;3.08;;;21.80;91.40;;;;;;5050131;28;20036;-72
2023/07/09 08:48:20;;;;;;;;;;;21.80;91.30;;;;;;5049075;28;20029;-72
2023/07/09 08:50:54;;;;;;;7.32;3.55;;;21.80;91.30;;;;;;5046783;28;20319;-72
2023/07/09 08:53:34;;;;;;;12.35;3.80;;;21.90;91.20;;;;;;5047281;28;20083;-72
2023/07/09 08:56:00;;;;;;;5.05;2.53;;;21.90;90.90;;;;;;5045501;28;20450;-73
2023/07/09 08:58:32;;;;;;;4.80;3.20;;;21.90;90.90;;;;;;5044651;28;20111;-73
2023/07/09 09:01:04;;;;;;;4.95;2.83;;;21.90;90.70;;;;;;5050356;28;20052;-73
2023/07/09 09:03:52;;;;;;;13.38;3.13;;;21.90;90.60;;;;;;5044305;28;20045;-73
2023/07/09 09:06:19;;;;;;;7.72;3.13;;;21.90;90.30;;;;;;5042708;28;20025;-73
2023/07/09 09:09:04;;;;;;;6.13;3.65;;;21.90;90.30;;;;;;5053149;28;20021;-73
2023/07/09 09:11:35;;;;;;;6.25;2.97;;;22.00;90.10;;;;;;5045061;28;20036;-72
2023/07/09 09:14:05;;;;;;;9.45;3.67;;;22.00;89.80;;;;;;5047547;28;20017;-73
2023/07/09 09:16:35;;;;;;;9.60;3.60;;;22.00;89.60;;;;;;5056252;28;20074;-73
2023/07/09 09:19:01;;;;;;;;;;;22.10;89.10;;;;;;5048800;28;20163;-74
2023/07/09 09:21:34;;;;;;;6.20;2.85;;;22.10;88.70;;;;;;5042438;28;19917;-73
2023/07/09 09:24:21;;;;;;;6.63;3.20;;;22.10;88.30;;;;;;5045060;28;20121;-73
2023/07/09 09:26:49;;;;;;;11.25;3.00;;;22.10;88.30;;;;;;5046807;28;20032;-73
2023/07/09 09:29:16;;;;;;;7.78;3.15;;;22.10;88.00;;;;;;5042978;28;20040;-72
2023/07/09 09:31:50;;;;;;;11.45;3.38;;;22.10;88.30;;;;;;5042010;28;20033;-73
2023/07/09 09:34:21;;;;;;;6.50;3.70;;;22.10;88.30;;;;;;5042807;28;20160;-73
2023/07/09 09:36:47;;;;;;;5.85;3.00;;;22.10;88.50;;;;;;5041747;28;20028;-73
2023/07/09 09:39:12;;;;;;;5.78;2.95;;;22.20;88.20;;;;;;5039121;28;20468;-73
2023/07/09 09:41:40;;;;;;;8.77;3.08;;;22.20;87.60;;;;;;5045514;28;20359;-73
2023/07/09 09:44:06;;;;;;;3.65;2.53;;;22.10;87.30;;;;;;5044611;28;20025;-73
2023/07/09 09:46:32;;;;;;;8.10;3.40;;;22.10;85.50;;;;;;5041354;28;20028;-74
2023/07/09 09:49:03;;;;;;;9.38;3.35;;;22.10;84.90;;;;;;5041674;28;20029;-72
2023/07/09 09:51:29;;;;;;;9.15;2.85;;;22.10;84.10;;;;;;5037491;28;20339;-73
2023/07/09 09:53:59;;;;;;;6.97;2.63;;;22.20;83.30;;;;;;5041520;28;20027;-73
2023/07/09 09:56:33;;;;;;;7.38;3.20;;;22.20;83.00;;;;;;5042710;28;20032;-72
2023/07/09 09:59:00;;;;;;;7.28;2.95;;;22.20;82.80;;;;;;5045630;28;20029;-73
2023/07/09 10:01:31;;;;;;;8.00;3.00;;;22.30;82.20;;;;;;5037006;28;20512;-73
2023/07/09 10:03:59;;;;;;;6.13;3.05;;;22.30;81.70;;;;;;5044104;28;20052;-74
2023/07/09 10:06:38;;;;;;;10.77;3.05;;;22.30;81.90;;;;;;5040544;28;20025;-73
2023/07/09 10:09:52;;;;;;;5.87;2.60;;;22.30;82.30;;;;;;5041701;28;20017;-74
2023/07/09 10:12:23;;;;;;;4.88;3.20;;;22.30;82.80;;;;;;4987051;28;20403;-75
2023/07/09 10:15:13;;;;;;;8.93;3.72;;;22.30;83.90;;;;;;4992175;28;20022;-76
2023/07/09 10:17:55;;;;;;;6.40;3.33;;;22.20;84.10;;;;;;4987887;28;20543;-75
2023/07/09 10:20:35;;;;;;;6.55;2.80;;;22.10;84.40;;;;;;4992792;28;20034;-75
2023/07/09 10:23:12;;;;;;;5.63;3.05;;;22.00;84.70;;;;;;5010100;28;20062;-75
2023/07/09 10:25:54;;;;;;;5.10;2.67;;;21.90;84.70;;;;;;5007945;28;20100;-74
2023/07/09 10:28:34;;;;;;;6.95;2.92;;;21.90;84.50;;;;;;5008531;28;20026;-75
2023/07/09 10:31:12;;;;;;;6.40;2.78;;;21.90;84.70;;;;;;5014062;28;20028;-74
2023/07/09 10:34:08;;;;;;;5.22;2.78;;;21.90;84.70;;;;;;5010073;28;20026;-74
2023/07/09 10:36:44;;;;;;;5.88;2.80;;;21.90;84.90;;;;;;5011459;28;20434;-74
2023/07/09 10:39:19;;;;;;;6.45;3.10;;;21.90;85.20;;;;;;5010943;28;20026;-75
2023/07/09 10:41:48;;;;;;;8.90;2.92;;;21.90;85.30;;;;;;5006208;28;20164;-75
2023/07/09 10:44:34;;;;;;;5.28;2.97;;;21.90;85.30;;;;;;5008199;28;20289;-75
2023/07/09 10:47:09;;;;;;;4.20;2.05;;;21.90;85.00;;;;;;5013098;28;20394;-74
2023/07/09 10:49:39;;;;;;;8.23;2.90;;;21.90;84.80;;;;;;5040740;28;20044;-75
2023/07/09 10:52:44;;;;;;;7.55;3.85;;;21.90;84.60;;;;;;5048040;28;20023;-75
2023/07/09 10:55:16;;;;;;;8.88;2.42;;;21.90;84.50;;;;;;4971273;28;20093;-75
2023/07/09 10:58:06;;;;;;;6.13;3.00;;;21.90;84.30;;;;;;4970451;28;20066;-75
2023/07/09 11:00:34;;;;;;;;;;;21.90;84.50;;;;;;4924552;28;20043;-75
2023/07/09 11:03:14;;;;;;;9.68;3.55;;;21.90;83.70;;;;;;4978648;28;19918;-74
2023/07/09 11:05:40;;;;;;;4.80;2.80;;;21.90;83.20;;;;;;4973482;28;20074;-74
2023/07/09 11:08:14;;;;;;;8.52;3.60;;;21.90;83.30;;;;;;4971329;28;20029;-74
2023/07/09 11:10:49;;;;;;;6.25;2.63;;;22.00;83.00;;;;;;4969300;28;20110;-75
2023/07/09 11:13:19;;;;;;;9.93;2.50;;;21.90;82.80;;;;;;4968777;28;20035;-75
2023/07/09 11:15:48;;;;;;;10.50;2.80;;;21.90;83.10;;;;;;4972433;28;20731;-74
2023/07/09 11:18:22;;;;;;;9.50;2.70;;;21.90;82.80;;;;;;4967158;28;20066;-75
2023/07/09 11:21:13;;;;;;;8.13;2.75;;;21.90;83.00;;;;;;4964878;28;20101;-75
2023/07/09 11:23:54;;;;;;;6.07;2.60;;;21.90;82.60;;;;;;4960314;28;20026;-74
2023/07/09 11:26:27;;;;;;;4.80;2.63;;;21.90;81.80;;;;;;4958317;28;20028;-74
2023/07/09 11:29:09;;;;;;;6.07;2.60;;;21.90;82.20;;;;;;4955943;28;20027;-75
2023/07/09 11:31:37;;;;;;;6.68;2.60;;;21.90;81.90;;;;;;5004204;28;20396;-75
2023/07/09 11:34:12;;;;;;;4.18;2.40;;;21.90;81.50;;;;;;5051331;28;20025;-75
2023/07/09 11:36:48;;;;;;;4.75;2.42;;;21.90;80.80;;;;;;5045411;28;20036;-74
2023/07/09 11:39:30;;;;;;;5.63;2.30;;;21.90;80.70;;;;;;5052609;28;20014;-74
2023/07/09 11:41:56;;;;;;;6.82;2.45;;;22.00;81.10;;;;;;5055874;28;20021;-74
2023/07/09 11:44:28;;;;;;;6.65;2.95;;;22.00;80.90;;;;;;5054971;28;20033;-74
2023/07/09 11:47:12;;;;;;;9.05;2.65;;;22.00;81.30;;;;;;5054062;28;20021;-76
2023/07/09 11:49:59;;;;;;;7.78;2.78;;;22.00;80.50;;;;;;5053860;28;20354;-74
2023/07/09 11:52:48;;;;;;;10.07;3.22;;;21.90;80.30;;;;;;5062325;28;20028;-74
2023/07/09 11:55:25;;;;;;;4.07;2.47;;;22.00;80.00;;;;;;5051173;28;20373;-74
2023/07/09 11:58:15;;;;;;;10.70;2.80;;;22.00;80.00;;;;;;5048808;28;20021;-74
2023/07/09 12:00:48;;;;;;;6.90;3.17;;;22.00;79.90;;;;;;5054641;28;20025;-74
2023/07/09 12:03:35;;;;;;;5.63;2.90;;;22.00;79.90;;;;;;5041742;28;20138;-74
2023/07/09 12:06:13;;;;;;;14.07;3.33;;;22.00;79.70;;;;;;5054102;28;20013;-74
2023/07/09 12:08:41;;;;;;;6.07;2.90;;;22.00;79.70;;;;;;5052796;28;20029;-74
2023/07/09 12:11:23;;;;;;;7.28;3.03;;;22.00;80.60;;;;;;5055306;28;20454;-74
2023/07/09 12:13:49;;;;;;;9.73;2.47;;;22.00;79.60;;;;;;5052699;28;20120;-76
2023/07/09 12:16:27;;;;;;;15.60;3.30;;;22.00;79.90;;;;;;5051369;28;20116;-75
2023/07/09 12:18:53;;;;;;;8.43;3.05;;;22.00;79.40;;;;;;5054236;28;20087;-75
2023/07/09 12:21:19;;;;;;;5.78;2.92;;;22.00;79.40;;;;;;5047878;28;20029;-75
2023/07/09 12:23:45;;;;;;;8.90;2.90;;;22.00;79.80;;;;;;5047707;28;20060;-74
2023/07/09 12:26:14;;;;;;;9.98;3.28;;;22.00;79.30;;;;;;5046193;28;20055;-75
2023/07/09 12:28:41;;;;;;;9.45;3.22;;;22.00;79.50;;;;;;5047385;28;20358;-75
2023/07/09 12:31:14;;;;;;;4.95;2.65;;;22.00;79.30;;;;;;5044479;28;20475;-74
2023/07/09 12:33:50;;;;;;;5.22;2.90;;;22.00;79.10;;;;;;5040725;28;20037;-74
2023/07/09 12:36:18;;;;;;;6.00;2.60;;;22.00;78.80;;;;;;5042144;28;20502;-74
2023/07/09 12:38:47;;;;;;;6.03;2.88;;;22.00;78.30;;;;;;5040485;28;20084;-74
2023/07/09 12:41:37;;;;;;;12.98;3.35;;;22.00;77.90;;;;;;5043919;28;20017;-74
2023/07/09 12:44:03;;;;;;;5.70;2.95;;;22.00;77.90;;;;;;5044847;28;20097;-74
2023/07/09 12:46:29;;;;;;;6.85;3.00;;;22.00;78.20;;;;;;5036787;28;20040;-74
2023/07/09 12:48:56;;;;;;;10.45;3.35;;;22.00;78.40;;;;;;5041317;28;20021;-75
2023/07/09 12:51:24;;;;;;;8.70;3.25;;;22.00;78.20;;;;;;5040906;28;20102;-75
2023/07/09 12:54:29;;;;;;;6.90;2.88;;;22.10;78.30;;;;;;5047874;28;20051;-75
2023/07/09 12:56:58;;;;;;;6.40;2.88;;;22.00;78.30;;;;;;4970628;28;20031;-74